sensor_id;sensor_type;location;lat;lon;timestamp;temperature;humidity
4509;DHT22;2267;48.816;9.230;2023-07-20T00:01:52;24.80;66.00
4509;DHT22;2267;48.816;9.230;2023-07-20T00:04:19;24.80;65.80
4509;DHT22;2267;48.816;9.230;2023-07-20T00:06:46;24.80;65.60
4509;DHT22;2267;48.816;9.230;2023-07-20T00:09:13;24.70;65.60
4509;DHT22;2267;48.816;9.230;2023-07-20T00:11:40;24.70;66.30
4509;DHT22;2267;48.816;9.230;2023-07-20T00:14:07;24.60;65.90
4509;DHT22;2267;48.816;9.230;2023-07-20T00:16:33;24.60;66.30
4509;DHT22;2267;48.816;9.230;2023-07-20T00:19:00;24.60;66.50
4509;DHT22;2267;48.816;9.230;2023-07-20T00:21:27;24.60;66.30
4509;DHT22;2267;48.816;9.230;2023-07-20T00:23:54;24.50;66.40
4509;DHT22;2267;48.816;9.230;2023-07-20T00:26:21;24.50;66.30
4509;DHT22;2267;48.816;9.230;2023-07-20T00:28:50;24.50;66.40
4509;DHT22;2267;48.816;9.230;2023-07-20T00:31:18;24.50;66.10
4509;DHT22;2267;48.816;9.230;2023-07-20T00:33:45;24.40;65.30
4509;DHT22;2267;48.816;9.230;2023-07-20T00:36:12;24.40;65.30
4509;DHT22;2267;48.816;9.230;2023-07-20T00:38:39;24.40;65.60
4509;DHT22;2267;48.816;9.230;2023-07-20T00:41:06;24.40;65.20
4509;DHT22;2267;48.816;9.230;2023-07-20T00:43:32;24.40;64.30
4509;DHT22;2267;48.816;9.230;2023-07-20T00:45:59;24.20;62.50
4509;DHT22;2267;48.816;9.230;2023-07-20T00:48:26;24.10;63.20
4509;DHT22;2267;48.816;9.230;2023-07-20T00:50:53;24.10;63.20
4509;DHT22;2267;48.816;9.230;2023-07-20T00:53:20;24.10;63.20
4509;DHT22;2267;48.816;9.230;2023-07-20T00:55:47;24.10;63.10
4509;DHT22;2267;48.816;9.230;2023-07-20T00:58:15;24.00;63.00
4509;DHT22;2267;48.816;9.230;2023-07-20T01:00:42;24.00;62.60
4509;DHT22;2267;48.816;9.230;2023-07-20T01:03:09;24.00;62.50
4509;DHT22;2267;48.816;9.230;2023-07-20T01:05:51;24.00;62.70
4509;DHT22;2267;48.816;9.230;2023-07-20T01:08:28;23.90;62.40
4509;DHT22;2267;48.816;9.230;2023-07-20T01:11:09;23.90;62.50
4509;DHT22;2267;48.816;9.230;2023-07-20T01:13:38;23.90;62.50
4509;DHT22;2267;48.816;9.230;2023-07-20T01:16:05;23.90;62.50
4509;DHT22;2267;48.816;9.230;2023-07-20T01:18:32;23.90;62.60
4509;DHT22;2267;48.816;9.230;2023-07-20T01:21:02;23.90;62.70
4509;DHT22;2267;48.816;9.230;2023-07-20T01:26:44;23.80;62.60
4509;DHT22;2267;48.816;9.230;2023-07-20T01:32:06;23.80;63.20
4509;DHT22;2267;48.816;9.230;2023-07-20T01:34:35;23.80;63.00
4509;DHT22;2267;48.816;9.230;2023-07-20T01:37:03;23.80;62.80
4509;DHT22;2267;48.816;9.230;2023-07-20T01:39:31;23.70;63.20
4509;DHT22;2267;48.816;9.230;2023-07-20T01:41:58;23.70;63.00
4509;DHT22;2267;48.816;9.230;2023-07-20T01:44:25;23.60;63.20
4509;DHT22;2267;48.816;9.230;2023-07-20T01:46:52;23.60;63.20
4509;DHT22;2267;48.816;9.230;2023-07-20T01:49:19;23.60;63.40
4509;DHT22;2267;48.816;9.230;2023-07-20T01:51:46;23.50;63.60
4509;DHT22;2267;48.816;9.230;2023-07-20T01:54:12;23.50;63.60
4509;DHT22;2267;48.816;9.230;2023-07-20T01:56:39;23.50;63.50
4509;DHT22;2267;48.816;9.230;2023-07-20T01:59:06;23.50;63.70
4509;DHT22;2267;48.816;9.230;2023-07-20T02:01:32;23.40;63.80
4509;DHT22;2267;48.816;9.230;2023-07-20T02:04:00;23.40;64.00
4509;DHT22;2267;48.816;9.230;2023-07-20T02:06:27;23.30;64.10
4509;DHT22;2267;48.816;9.230;2023-07-20T02:08:54;23.30;64.30
4509;DHT22;2267;48.816;9.230;2023-07-20T02:11:21;23.30;64.50
4509;DHT22;2267;48.816;9.230;2023-07-20T02:13:47;23.30;64.60
4509;DHT22;2267;48.816;9.230;2023-07-20T02:16:14;23.30;64.70
4509;DHT22;2267;48.816;9.230;2023-07-20T02:18:41;23.30;65.00
4509;DHT22;2267;48.816;9.230;2023-07-20T02:21:08;23.20;65.00
4509;DHT22;2267;48.816;9.230;2023-07-20T02:23:34;23.20;65.00
4509;DHT22;2267;48.816;9.230;2023-07-20T02:26:01;23.20;65.10
4509;DHT22;2267;48.816;9.230;2023-07-20T02:28:28;23.20;65.40
4509;DHT22;2267;48.816;9.230;2023-07-20T02:30:55;23.10;65.30
4509;DHT22;2267;48.816;9.230;2023-07-20T02:33:22;23.10;65.70
4509;DHT22;2267;48.816;9.230;2023-07-20T02:35:49;23.10;65.80
4509;DHT22;2267;48.816;9.230;2023-07-20T02:38:16;23.10;65.80
4509;DHT22;2267;48.816;9.230;2023-07-20T02:40:43;23.10;66.10
4509;DHT22;2267;48.816;9.230;2023-07-20T02:43:09;23.10;66.10
4509;DHT22;2267;48.816;9.230;2023-07-20T02:45:40;23.10;66.30
4509;DHT22;2267;48.816;9.230;2023-07-20T02:48:07;23.10;66.20
4509;DHT22;2267;48.816;9.230;2023-07-20T02:50:34;23.10;66.40
4509;DHT22;2267;48.816;9.230;2023-07-20T02:53:02;23.00;66.30
4509;DHT22;2267;48.816;9.230;2023-07-20T02:55:29;23.00;66.50
4509;DHT22;2267;48.816;9.230;2023-07-20T02:57:55;23.00;66.80
4509;DHT22;2267;48.816;9.230;2023-07-20T03:00:22;22.90;66.60
4509;DHT22;2267;48.816;9.230;2023-07-20T03:02:50;22.90;66.90
4509;DHT22;2267;48.816;9.230;2023-07-20T03:05:19;22.80;66.60
4509;DHT22;2267;48.816;9.230;2023-07-20T03:07:47;22.80;67.20
4509;DHT22;2267;48.816;9.230;2023-07-20T03:10:14;22.80;67.30
4509;DHT22;2267;48.816;9.230;2023-07-20T03:12:41;22.80;67.30
4509;DHT22;2267;48.816;9.230;2023-07-20T03:15:08;22.80;67.40
4509;DHT22;2267;48.816;9.230;2023-07-20T03:17:35;22.70;67.50
4509;DHT22;2267;48.816;9.230;2023-07-20T03:20:02;22.70;67.70
4509;DHT22;2267;48.816;9.230;2023-07-20T03:22:29;22.70;68.10
4509;DHT22;2267;48.816;9.230;2023-07-20T03:24:56;22.70;68.10
4509;DHT22;2267;48.816;9.230;2023-07-20T03:27:23;22.70;67.90
4509;DHT22;2267;48.816;9.230;2023-07-20T03:29:49;22.70;68.20
4509;DHT22;2267;48.816;9.230;2023-07-20T03:32:16;22.60;68.20
4509;DHT22;2267;48.816;9.230;2023-07-20T03:34:43;22.60;68.30
4509;DHT22;2267;48.816;9.230;2023-07-20T03:37:12;22.60;68.40
4509;DHT22;2267;48.816;9.230;2023-07-20T03:39:39;22.60;68.60
4509;DHT22;2267;48.816;9.230;2023-07-20T03:42:06;22.60;68.70
4509;DHT22;2267;48.816;9.230;2023-07-20T03:44:33;22.50;68.70
4509;DHT22;2267;48.816;9.230;2023-07-20T03:47:00;22.50;69.20
4509;DHT22;2267;48.816;9.230;2023-07-20T03:49:27;22.50;69.20
4509;DHT22;2267;48.816;9.230;2023-07-20T03:51:54;22.50;69.30
4509;DHT22;2267;48.816;9.230;2023-07-20T03:54:22;22.40;69.20
4509;DHT22;2267;48.816;9.230;2023-07-20T03:56:49;22.40;69.30
4509;DHT22;2267;48.816;9.230;2023-07-20T03:59:15;22.30;69.30
4509;DHT22;2267;48.816;9.230;2023-07-20T04:01:42;22.30;69.40
4509;DHT22;2267;48.816;9.230;2023-07-20T04:04:09;22.30;69.80
4509;DHT22;2267;48.816;9.230;2023-07-20T04:06:36;22.20;69.60
4509;DHT22;2267;48.816;9.230;2023-07-20T04:09:04;22.20;69.90
4509;DHT22;2267;48.816;9.230;2023-07-20T04:11:33;22.10;70.20
4509;DHT22;2267;48.816;9.230;2023-07-20T04:14:00;22.10;70.80
4509;DHT22;2267;48.816;9.230;2023-07-20T04:16:27;22.10;70.70
4509;DHT22;2267;48.816;9.230;2023-07-20T04:18:57;22.10;70.60
4509;DHT22;2267;48.816;9.230;2023-07-20T04:21:28;22.10;70.60
4509;DHT22;2267;48.816;9.230;2023-07-20T04:23:54;22.10;71.20
4509;DHT22;2267;48.816;9.230;2023-07-20T04:26:21;22.10;71.30
4509;DHT22;2267;48.816;9.230;2023-07-20T04:28:48;22.10;71.90
4509;DHT22;2267;48.816;9.230;2023-07-20T04:31:17;22.10;72.00
4509;DHT22;2267;48.816;9.230;2023-07-20T04:33:44;22.10;71.70
4509;DHT22;2267;48.816;9.230;2023-07-20T04:36:11;22.10;71.50
4509;DHT22;2267;48.816;9.230;2023-07-20T04:38:37;22.00;71.70
4509;DHT22;2267;48.816;9.230;2023-07-20T04:41:04;22.00;72.20
4509;DHT22;2267;48.816;9.230;2023-07-20T04:43:31;22.00;72.30
4509;DHT22;2267;48.816;9.230;2023-07-20T04:45:58;22.00;72.20
4509;DHT22;2267;48.816;9.230;2023-07-20T04:48:25;22.00;72.20
4509;DHT22;2267;48.816;9.230;2023-07-20T04:50:52;21.90;72.00
4509;DHT22;2267;48.816;9.230;2023-07-20T04:53:19;21.90;71.90
4509;DHT22;2267;48.816;9.230;2023-07-20T04:55:49;21.90;72.00
4509;DHT22;2267;48.816;9.230;2023-07-20T04:58:21;21.90;72.50
4509;DHT22;2267;48.816;9.230;2023-07-20T05:00:49;21.90;72.60
4509;DHT22;2267;48.816;9.230;2023-07-20T05:03:16;21.80;72.70
4509;DHT22;2267;48.816;9.230;2023-07-20T05:05:43;21.90;73.00
4509;DHT22;2267;48.816;9.230;2023-07-20T05:08:13;21.90;72.90
4509;DHT22;2267;48.816;9.230;2023-07-20T05:10:40;21.90;72.70
4509;DHT22;2267;48.816;9.230;2023-07-20T05:13:07;21.90;72.50
4509;DHT22;2267;48.816;9.230;2023-07-20T05:15:34;21.90;72.60
4509;DHT22;2267;48.816;9.230;2023-07-20T05:18:01;22.00;72.50
4509;DHT22;2267;48.816;9.230;2023-07-20T05:20:28;22.00;72.60
4509;DHT22;2267;48.816;9.230;2023-07-20T05:22:55;22.00;72.50
4509;DHT22;2267;48.816;9.230;2023-07-20T05:25:22;22.00;72.60
4509;DHT22;2267;48.816;9.230;2023-07-20T05:27:49;22.00;72.60
4509;DHT22;2267;48.816;9.230;2023-07-20T05:30:17;22.00;72.50
4509;DHT22;2267;48.816;9.230;2023-07-20T05:32:44;22.00;72.40
4509;DHT22;2267;48.816;9.230;2023-07-20T05:35:14;22.10;72.50
4509;DHT22;2267;48.816;9.230;2023-07-20T05:37:42;22.10;72.50
4509;DHT22;2267;48.816;9.230;2023-07-20T05:40:09;22.10;72.60
4509;DHT22;2267;48.816;9.230;2023-07-20T05:42:38;22.20;72.90
4509;DHT22;2267;48.816;9.230;2023-07-20T05:45:06;22.20;72.80
4509;DHT22;2267;48.816;9.230;2023-07-20T05:47:33;22.20;72.80
4509;DHT22;2267;48.816;9.230;2023-07-20T05:50:00;22.20;72.80
4509;DHT22;2267;48.816;9.230;2023-07-20T05:52:27;22.30;72.90
4509;DHT22;2267;48.816;9.230;2023-07-20T05:54:54;22.30;72.80
4509;DHT22;2267;48.816;9.230;2023-07-20T05:57:21;22.30;72.50
4509;DHT22;2267;48.816;9.230;2023-07-20T05:59:48;22.30;72.60
4509;DHT22;2267;48.816;9.230;2023-07-20T06:02:16;22.40;72.70
4509;DHT22;2267;48.816;9.230;2023-07-20T06:04:43;22.40;72.50
4509;DHT22;2267;48.816;9.230;2023-07-20T06:07:10;22.50;72.70
4509;DHT22;2267;48.816;9.230;2023-07-20T06:09:37;22.50;72.60
4509;DHT22;2267;48.816;9.230;2023-07-20T06:12:04;22.50;72.20
4509;DHT22;2267;48.816;9.230;2023-07-20T06:14:31;22.60;72.30
4509;DHT22;2267;48.816;9.230;2023-07-20T06:16:58;22.60;72.40
4509;DHT22;2267;48.816;9.230;2023-07-20T06:19:25;22.60;72.30
4509;DHT22;2267;48.816;9.230;2023-07-20T06:21:51;22.60;72.40
4509;DHT22;2267;48.816;9.230;2023-07-20T06:24:18;22.60;72.10
4509;DHT22;2267;48.816;9.230;2023-07-20T06:26:45;22.60;72.20
4509;DHT22;2267;48.816;9.230;2023-07-20T06:29:12;22.80;76.80
4509;DHT22;2267;48.816;9.230;2023-07-20T06:31:39;22.90;77.10
4509;DHT22;2267;48.816;9.230;2023-07-20T06:34:05;23.00;76.60
4509;DHT22;2267;48.816;9.230;2023-07-20T06:36:32;23.00;76.30
4509;DHT22;2267;48.816;9.230;2023-07-20T06:38:59;23.10;76.80
4509;DHT22;2267;48.816;9.230;2023-07-20T06:41:29;23.20;76.80
4509;DHT22;2267;48.816;9.230;2023-07-20T06:43:59;23.30;75.50
4509;DHT22;2267;48.816;9.230;2023-07-20T06:46:26;23.40;73.70
4509;DHT22;2267;48.816;9.230;2023-07-20T06:48:54;23.30;73.40
4509;DHT22;2267;48.816;9.230;2023-07-20T06:51:24;23.30;73.10
4509;DHT22;2267;48.816;9.230;2023-07-20T06:53:51;23.30;73.30
4509;DHT22;2267;48.816;9.230;2023-07-20T06:56:18;23.30;73.30
4509;DHT22;2267;48.816;9.230;2023-07-20T06:58:49;23.30;73.40
4509;DHT22;2267;48.816;9.230;2023-07-20T07:01:16;23.20;73.80
4509;DHT22;2267;48.816;9.230;2023-07-20T07:03:43;23.20;73.30
4509;DHT22;2267;48.816;9.230;2023-07-20T07:06:10;23.10;73.40
4509;DHT22;2267;48.816;9.230;2023-07-20T07:08:37;23.10;73.70
4509;DHT22;2267;48.816;9.230;2023-07-20T07:11:04;23.10;73.60
4509;DHT22;2267;48.816;9.230;2023-07-20T07:13:32;23.10;73.40
4509;DHT22;2267;48.816;9.230;2023-07-20T07:15:59;23.20;73.50
4509;DHT22;2267;48.816;9.230;2023-07-20T07:18:25;23.10;73.00
4509;DHT22;2267;48.816;9.230;2023-07-20T07:20:53;23.20;73.00
4509;DHT22;2267;48.816;9.230;2023-07-20T07:23:20;23.20;73.00
4509;DHT22;2267;48.816;9.230;2023-07-20T07:25:47;23.10;73.10
4509;DHT22;2267;48.816;9.230;2023-07-20T07:28:14;23.10;73.10
4509;DHT22;2267;48.816;9.230;2023-07-20T07:30:41;23.10;73.30
4509;DHT22;2267;48.816;9.230;2023-07-20T07:33:08;23.10;73.70
4509;DHT22;2267;48.816;9.230;2023-07-20T07:35:37;23.10;73.30
4509;DHT22;2267;48.816;9.230;2023-07-20T07:38:04;23.10;72.60
4509;DHT22;2267;48.816;9.230;2023-07-20T07:40:53;23.10;72.30
4509;DHT22;2267;48.816;9.230;2023-07-20T07:43:20;23.20;72.60
4509;DHT22;2267;48.816;9.230;2023-07-20T07:45:46;23.10;72.10
4509;DHT22;2267;48.816;9.230;2023-07-20T07:48:13;23.10;71.60
4509;DHT22;2267;48.816;9.230;2023-07-20T07:50:40;23.20;71.20
4509;DHT22;2267;48.816;9.230;2023-07-20T07:53:08;23.20;70.90
4509;DHT22;2267;48.816;9.230;2023-07-20T07:55:36;23.10;70.80
4509;DHT22;2267;48.816;9.230;2023-07-20T07:58:03;23.20;71.60
4509;DHT22;2267;48.816;9.230;2023-07-20T08:00:30;23.20;71.60
4509;DHT22;2267;48.816;9.230;2023-07-20T08:02:57;23.20;71.60
4509;DHT22;2267;48.816;9.230;2023-07-20T08:05:24;23.30;71.50
4509;DHT22;2267;48.816;9.230;2023-07-20T08:07:53;23.40;71.20
4509;DHT22;2267;48.816;9.230;2023-07-20T08:10:19;23.40;70.70
4509;DHT22;2267;48.816;9.230;2023-07-20T08:12:46;23.50;71.20
4509;DHT22;2267;48.816;9.230;2023-07-20T08:15:13;23.50;71.30
4509;DHT22;2267;48.816;9.230;2023-07-20T08:17:42;23.50;71.50
4509;DHT22;2267;48.816;9.230;2023-07-20T08:20:13;23.50;71.40
4509;DHT22;2267;48.816;9.230;2023-07-20T08:22:40;23.60;71.10
4509;DHT22;2267;48.816;9.230;2023-07-20T08:25:07;23.60;70.60
4509;DHT22;2267;48.816;9.230;2023-07-20T08:27:35;23.70;70.00
4509;DHT22;2267;48.816;9.230;2023-07-20T08:30:03;23.70;69.90
4509;DHT22;2267;48.816;9.230;2023-07-20T08:32:32;23.70;69.80
4509;DHT22;2267;48.816;9.230;2023-07-20T08:34:59;23.70;70.30
4509;DHT22;2267;48.816;9.230;2023-07-20T08:37:26;23.60;70.50
4509;DHT22;2267;48.816;9.230;2023-07-20T08:39:52;23.60;70.50
4509;DHT22;2267;48.816;9.230;2023-07-20T08:42:20;23.50;70.20
4509;DHT22;2267;48.816;9.230;2023-07-20T08:44:49;23.50;70.40
4509;DHT22;2267;48.816;9.230;2023-07-20T08:47:20;23.50;70.40
4509;DHT22;2267;48.816;9.230;2023-07-20T08:49:50;23.50;70.70
4509;DHT22;2267;48.816;9.230;2023-07-20T08:52:17;23.60;69.90
4509;DHT22;2267;48.816;9.230;2023-07-20T08:54:44;23.60;69.80
4509;DHT22;2267;48.816;9.230;2023-07-20T08:57:13;23.70;69.60
4509;DHT22;2267;48.816;9.230;2023-07-20T08:59:41;23.80;69.30
4509;DHT22;2267;48.816;9.230;2023-07-20T09:02:09;23.90;69.00
4509;DHT22;2267;48.816;9.230;2023-07-20T09:04:45;23.90;69.10
4509;DHT22;2267;48.816;9.230;2023-07-20T09:07:12;23.90;68.20
4509;DHT22;2267;48.816;9.230;2023-07-20T09:09:40;23.90;68.50
4509;DHT22;2267;48.816;9.230;2023-07-20T09:12:16;24.00;67.40
4509;DHT22;2267;48.816;9.230;2023-07-20T09:14:44;24.00;66.70
4509;DHT22;2267;48.816;9.230;2023-07-20T09:17:14;24.10;66.60
4509;DHT22;2267;48.816;9.230;2023-07-20T09:19:49;24.10;66.50
4509;DHT22;2267;48.816;9.230;2023-07-20T09:22:16;24.10;66.90
4509;DHT22;2267;48.816;9.230;2023-07-20T09:24:44;24.20;67.00
4509;DHT22;2267;48.816;9.230;2023-07-20T09:27:11;24.30;66.60
4509;DHT22;2267;48.816;9.230;2023-07-20T09:29:49;24.40;66.60
4509;DHT22;2267;48.816;9.230;2023-07-20T09:32:20;24.40;66.80
4509;DHT22;2267;48.816;9.230;2023-07-20T09:34:51;24.40;66.70
4509;DHT22;2267;48.816;9.230;2023-07-20T09:37:22;24.40;66.60
4509;DHT22;2267;48.816;9.230;2023-07-20T09:39:52;24.40;66.50
4509;DHT22;2267;48.816;9.230;2023-07-20T09:42:25;24.30;65.90
4509;DHT22;2267;48.816;9.230;2023-07-20T09:44:56;24.30;65.70
4509;DHT22;2267;48.816;9.230;2023-07-20T09:47:24;24.30;64.70
4509;DHT22;2267;48.816;9.230;2023-07-20T09:49:58;24.30;64.50
4509;DHT22;2267;48.816;9.230;2023-07-20T09:52:34;24.40;65.60
4509;DHT22;2267;48.816;9.230;2023-07-20T09:55:06;24.40;64.60
4509;DHT22;2267;48.816;9.230;2023-07-20T09:57:35;24.50;64.60
4509;DHT22;2267;48.816;9.230;2023-07-20T10:00:04;24.50;65.00
4509;DHT22;2267;48.816;9.230;2023-07-20T10:02:44;24.60;63.40
4509;DHT22;2267;48.816;9.230;2023-07-20T10:05:13;24.50;62.90
4509;DHT22;2267;48.816;9.230;2023-07-20T10:07:48;24.50;63.00
4509;DHT22;2267;48.816;9.230;2023-07-20T10:10:19;24.60;62.20
4509;DHT22;2267;48.816;9.230;2023-07-20T10:12:49;24.70;62.10
4509;DHT22;2267;48.816;9.230;2023-07-20T10:18:07;24.80;61.40
4509;DHT22;2267;48.816;9.230;2023-07-20T10:20:39;24.80;60.70
4509;DHT22;2267;48.816;9.230;2023-07-20T10:23:29;25.00;61.10
4509;DHT22;2267;48.816;9.230;2023-07-20T10:25:57;25.10;60.90
4509;DHT22;2267;48.816;9.230;2023-07-20T10:28:27;25.10;59.70
4509;DHT22;2267;48.816;9.230;2023-07-20T10:30:54;25.10;58.90
4509;DHT22;2267;48.816;9.230;2023-07-20T10:33:21;25.20;58.80
4509;DHT22;2267;48.816;9.230;2023-07-20T10:35:57;25.30;59.20
4509;DHT22;2267;48.816;9.230;2023-07-20T10:38:40;25.20;58.30
4509;DHT22;2267;48.816;9.230;2023-07-20T10:41:29;25.20;58.40
4509;DHT22;2267;48.816;9.230;2023-07-20T10:44:02;25.30;58.50
4509;DHT22;2267;48.816;9.230;2023-07-20T10:49:03;25.30;57.60
4509;DHT22;2267;48.816;9.230;2023-07-20T10:51:43;25.20;57.50
4509;DHT22;2267;48.816;9.230;2023-07-20T10:56:44;25.40;58.10
4509;DHT22;2267;48.816;9.230;2023-07-20T10:59:40;25.50;57.40
4509;DHT22;2267;48.816;9.230;2023-07-20T11:02:08;25.60;57.50
4509;DHT22;2267;48.816;9.230;2023-07-20T11:04:43;25.70;57.70
4509;DHT22;2267;48.816;9.230;2023-07-20T11:07:10;25.80;57.20
4509;DHT22;2267;48.816;9.230;2023-07-20T11:09:41;26.00;57.20
4509;DHT22;2267;48.816;9.230;2023-07-20T11:12:14;26.10;56.60
4509;DHT22;2267;48.816;9.230;2023-07-20T11:14:42;26.10;56.50
4509;DHT22;2267;48.816;9.230;2023-07-20T11:17:14;26.30;56.30
4509;DHT22;2267;48.816;9.230;2023-07-20T11:19:41;26.40;55.40
4509;DHT22;2267;48.816;9.230;2023-07-20T11:22:11;26.40;55.40
4509;DHT22;2267;48.816;9.230;2023-07-20T11:24:39;26.50;55.30
4509;DHT22;2267;48.816;9.230;2023-07-20T11:27:06;26.60;55.10
4509;DHT22;2267;48.816;9.230;2023-07-20T11:29:34;26.60;53.90
4509;DHT22;2267;48.816;9.230;2023-07-20T11:32:02;26.70;54.50
4509;DHT22;2267;48.816;9.230;2023-07-20T11:34:32;26.90;54.60
4509;DHT22;2267;48.816;9.230;2023-07-20T11:37:00;27.00;54.20
4509;DHT22;2267;48.816;9.230;2023-07-20T11:39:29;27.00;53.90
4509;DHT22;2267;48.816;9.230;2023-07-20T11:41:57;27.10;53.40
4509;DHT22;2267;48.816;9.230;2023-07-20T11:44:26;27.10;52.80
4509;DHT22;2267;48.816;9.230;2023-07-20T11:47:11;27.10;52.30
4509;DHT22;2267;48.816;9.230;2023-07-20T11:49:40;27.20;53.30
4509;DHT22;2267;48.816;9.230;2023-07-20T11:52:11;27.30;52.00
4509;DHT22;2267;48.816;9.230;2023-07-20T11:54:40;27.40;52.10
4509;DHT22;2267;48.816;9.230;2023-07-20T11:57:19;27.60;52.20
4509;DHT22;2267;48.816;9.230;2023-07-20T12:00:01;27.70;50.80
4509;DHT22;2267;48.816;9.230;2023-07-20T12:02:32;27.70;50.40
4509;DHT22;2267;48.816;9.230;2023-07-20T12:04:59;27.70;50.30
4509;DHT22;2267;48.816;9.230;2023-07-20T12:07:28;27.80;51.50
4509;DHT22;2267;48.816;9.230;2023-07-20T12:10:09;28.00;51.80
4509;DHT22;2267;48.816;9.230;2023-07-20T12:12:41;28.10;50.60
4509;DHT22;2267;48.816;9.230;2023-07-20T12:15:24;28.30;50.20
4509;DHT22;2267;48.816;9.230;2023-07-20T12:17:55;28.40;50.40
4509;DHT22;2267;48.816;9.230;2023-07-20T12:20:33;28.50;49.90
4509;DHT22;2267;48.816;9.230;2023-07-20T12:23:03;28.70;50.00
4509;DHT22;2267;48.816;9.230;2023-07-20T12:28:09;28.60;49.90
4509;DHT22;2267;48.816;9.230;2023-07-20T12:30:37;28.70;49.20
4509;DHT22;2267;48.816;9.230;2023-07-20T12:33:04;28.70;48.70
4509;DHT22;2267;48.816;9.230;2023-07-20T12:35:32;28.70;48.80
4509;DHT22;2267;48.816;9.230;2023-07-20T12:37:59;28.60;49.30
4509;DHT22;2267;48.816;9.230;2023-07-20T12:40:26;28.50;49.60
4509;DHT22;2267;48.816;9.230;2023-07-20T12:42:53;28.30;49.90
4509;DHT22;2267;48.816;9.230;2023-07-20T12:45:20;28.50;49.70
4509;DHT22;2267;48.816;9.230;2023-07-20T12:47:47;28.40;49.30
4509;DHT22;2267;48.816;9.230;2023-07-20T12:50:14;28.50;49.20
4509;DHT22;2267;48.816;9.230;2023-07-20T12:52:41;28.60;49.50
4509;DHT22;2267;48.816;9.230;2023-07-20T12:55:09;28.80;49.80
4509;DHT22;2267;48.816;9.230;2023-07-20T12:57:37;29.00;48.90
4509;DHT22;2267;48.816;9.230;2023-07-20T13:00:05;29.10;47.90
4509;DHT22;2267;48.816;9.230;2023-07-20T13:02:34;29.30;48.70
4509;DHT22;2267;48.816;9.230;2023-07-20T13:05:02;29.50;48.70
4509;DHT22;2267;48.816;9.230;2023-07-20T13:07:37;29.60;47.90
4509;DHT22;2267;48.816;9.230;2023-07-20T13:10:09;29.80;47.30
4509;DHT22;2267;48.816;9.230;2023-07-20T13:12:37;29.80;47.20
4509;DHT22;2267;48.816;9.230;2023-07-20T13:15:06;29.90;46.90
4509;DHT22;2267;48.816;9.230;2023-07-20T13:17:38;30.00;46.40
4509;DHT22;2267;48.816;9.230;2023-07-20T13:20:07;30.10;46.50
4509;DHT22;2267;48.816;9.230;2023-07-20T13:22:37;29.70;45.90
4509;DHT22;2267;48.816;9.230;2023-07-20T13:25:05;29.50;46.20
4509;DHT22;2267;48.816;9.230;2023-07-20T13:27:33;29.40;45.90
4509;DHT22;2267;48.816;9.230;2023-07-20T13:30:00;29.40;46.80
4509;DHT22;2267;48.816;9.230;2023-07-20T13:32:29;29.60;47.10
4509;DHT22;2267;48.816;9.230;2023-07-20T13:35:00;29.70;46.70
4509;DHT22;2267;48.816;9.230;2023-07-20T13:37:27;29.90;46.00
4509;DHT22;2267;48.816;9.230;2023-07-20T13:39:54;30.00;46.00
4509;DHT22;2267;48.816;9.230;2023-07-20T13:42:22;30.20;45.80
4509;DHT22;2267;48.816;9.230;2023-07-20T13:44:49;30.20;46.00
4509;DHT22;2267;48.816;9.230;2023-07-20T13:47:16;30.30;44.70
4509;DHT22;2267;48.816;9.230;2023-07-20T13:49:46;30.20;45.10
4509;DHT22;2267;48.816;9.230;2023-07-20T13:52:14;30.30;45.20
4509;DHT22;2267;48.816;9.230;2023-07-20T13:54:44;30.40;45.20
4509;DHT22;2267;48.816;9.230;2023-07-20T13:57:17;30.30;44.90
4509;DHT22;2267;48.816;9.230;2023-07-20T13:59:44;30.10;45.40
4509;DHT22;2267;48.816;9.230;2023-07-20T14:02:14;29.90;45.10
4509;DHT22;2267;48.816;9.230;2023-07-20T14:04:44;30.00;45.40
4509;DHT22;2267;48.816;9.230;2023-07-20T14:07:11;30.10;45.70
4509;DHT22;2267;48.816;9.230;2023-07-20T14:09:39;30.20;45.20
4509;DHT22;2267;48.816;9.230;2023-07-20T14:12:26;30.40;45.30
4509;DHT22;2267;48.816;9.230;2023-07-20T14:14:54;30.50;44.90
4509;DHT22;2267;48.816;9.230;2023-07-20T14:17:21;30.70;44.40
4509;DHT22;2267;48.816;9.230;2023-07-20T14:19:48;30.70;44.20
4509;DHT22;2267;48.816;9.230;2023-07-20T14:22:16;30.80;43.90
4509;DHT22;2267;48.816;9.230;2023-07-20T14:24:45;30.80;43.60
4509;DHT22;2267;48.816;9.230;2023-07-20T14:27:12;30.80;43.30
4509;DHT22;2267;48.816;9.230;2023-07-20T14:29:39;30.80;43.30
4509;DHT22;2267;48.816;9.230;2023-07-20T14:32:06;30.70;43.40
4509;DHT22;2267;48.816;9.230;2023-07-20T14:34:34;30.80;43.80
4509;DHT22;2267;48.816;9.230;2023-07-20T14:37:05;31.00;44.20
4509;DHT22;2267;48.816;9.230;2023-07-20T14:39:32;31.10;43.70
4509;DHT22;2267;48.816;9.230;2023-07-20T14:41:59;31.30;43.70
4509;DHT22;2267;48.816;9.230;2023-07-20T14:44:26;31.30;42.30
4509;DHT22;2267;48.816;9.230;2023-07-20T14:46:52;31.30;42.50
4509;DHT22;2267;48.816;9.230;2023-07-20T14:49:37;31.40;42.80
4509;DHT22;2267;48.816;9.230;2023-07-20T14:52:04;31.40;42.20
4509;DHT22;2267;48.816;9.230;2023-07-20T14:54:41;31.40;42.30
4509;DHT22;2267;48.816;9.230;2023-07-20T14:57:08;31.40;42.20
4509;DHT22;2267;48.816;9.230;2023-07-20T14:59:41;31.20;40.90
4509;DHT22;2267;48.816;9.230;2023-07-20T15:02:12;31.10;41.60
4509;DHT22;2267;48.816;9.230;2023-07-20T15:04:49;31.10;41.80
4509;DHT22;2267;48.816;9.230;2023-07-20T15:07:20;31.00;42.20
4509;DHT22;2267;48.816;9.230;2023-07-20T15:09:48;31.00;42.40
4509;DHT22;2267;48.816;9.230;2023-07-20T15:12:16;30.90;41.80
4509;DHT22;2267;48.816;9.230;2023-07-20T15:14:43;30.90;42.00
4509;DHT22;2267;48.816;9.230;2023-07-20T15:17:10;30.90;41.80
4509;DHT22;2267;48.816;9.230;2023-07-20T15:19:38;30.90;42.10
4509;DHT22;2267;48.816;9.230;2023-07-20T15:22:05;31.00;42.00
4509;DHT22;2267;48.816;9.230;2023-07-20T15:24:33;30.90;42.00
4509;DHT22;2267;48.816;9.230;2023-07-20T15:27:00;30.90;42.00
4509;DHT22;2267;48.816;9.230;2023-07-20T15:29:34;30.80;41.80
4509;DHT22;2267;48.816;9.230;2023-07-20T15:32:02;30.80;42.00
4509;DHT22;2267;48.816;9.230;2023-07-20T15:34:29;30.90;42.00
4509;DHT22;2267;48.816;9.230;2023-07-20T15:36:56;30.80;41.70
4509;DHT22;2267;48.816;9.230;2023-07-20T15:39:23;30.80;41.80
4509;DHT22;2267;48.816;9.230;2023-07-20T15:41:50;30.80;42.10
4509;DHT22;2267;48.816;9.230;2023-07-20T15:44:17;30.80;41.60
4509;DHT22;2267;48.816;9.230;2023-07-20T15:46:46;30.80;42.10
4509;DHT22;2267;48.816;9.230;2023-07-20T15:49:15;30.80;42.00
4509;DHT22;2267;48.816;9.230;2023-07-20T15:51:42;30.70;42.00
4509;DHT22;2267;48.816;9.230;2023-07-20T15:54:10;30.50;41.80
4509;DHT22;2267;48.816;9.230;2023-07-20T15:56:38;30.40;41.80
4509;DHT22;2267;48.816;9.230;2023-07-20T15:59:08;30.30;42.20
4509;DHT22;2267;48.816;9.230;2023-07-20T16:01:35;30.30;42.50
4509;DHT22;2267;48.816;9.230;2023-07-20T16:04:04;30.20;41.90
4509;DHT22;2267;48.816;9.230;2023-07-20T16:06:31;30.10;42.20
4509;DHT22;2267;48.816;9.230;2023-07-20T16:08:59;30.10;42.70
4509;DHT22;2267;48.816;9.230;2023-07-20T16:11:26;30.00;42.70
4509;DHT22;2267;48.816;9.230;2023-07-20T16:13:56;30.00;43.10
4509;DHT22;2267;48.816;9.230;2023-07-20T16:16:23;29.90;42.90
4509;DHT22;2267;48.816;9.230;2023-07-20T16:18:50;29.90;43.20
4509;DHT22;2267;48.816;9.230;2023-07-20T16:21:17;29.80;43.30
4509;DHT22;2267;48.816;9.230;2023-07-20T16:23:44;29.70;43.40
4509;DHT22;2267;48.816;9.230;2023-07-20T16:26:11;29.60;43.30
4509;DHT22;2267;48.816;9.230;2023-07-20T16:28:38;29.60;43.90